KTUL/TUL METAR and TAF weather

Enter ICAO airport designator
Station Type Date Time Source
KTUL METAR 2022/01/29 09:53 UTC NOAA

KTUL 290953Z 17006KT 10SM CLR M02/M07 A3030 RMK AO2 SLP263 T10171072 $


Station Type Date Time Source
KTUL Decoded METAR 2022/01/29 09:53 UTC NOAA

TULSA INTERNATIONAL AIRPORT, OK, United States (KTUL) 36-12N 95-53W 207M
Jan 29, 2022 - 04:53 AM EST / 2022.01.29 0953 UTC
Wind: from the S (170 degrees) at 7 MPH (6 KT):0
Visibility: 10 mile(s):0
Sky conditions: clear
Temperature: 28.9 F (-1.7 C)
Windchill: 21 F (-6 C):1
Dew Point: 19.0 F (-7.2 C)
Relative Humidity: 66%
Pressure (altimeter): 30.3 in. Hg (1026 hPa)
ob: KTUL 290953Z 17006KT 10SM CLR M02/M07 A3030 RMK AO2 SLP263 T10171072
cycle: 10

Station Type Date Time Source
KTUL TAF 2022/01/29 06:22 UTC NOAA

TAF KTUL 290520Z 2906/3006 VRB03KT P6SM SKC
FM291600 21011G20KT P6SM SKC
FM300000 22007KT P6SM SKC

Example: see airport list